Wood, Iowa
Current Conditions -  °F | °C
As of 12:35 PM on Saturday 25 Oct 2014 (Local Time) from KPDC Reporting Station
Clear Clear  
Wind Chill: 65°   Ceiling: Unl
Heat Index: 65°   Visibility: 10mi
Dew Point: 30°   Wind: 10mph
Humidity: 27%   Direction: 310°NW
Pressure: 30.02"   Gusts: NA
Location:  42.6679°N, 91.3801°W
Report Text: KPDC 251735Z AUTO 31009KT 10SM CLR 19/M01 A3002 RMK AO2 T01851009
Loading
Personal Weather Stations






























Interactive Weather Map
Tropical Storm Tracking
New forecast layout! Learn more

10-Day Weather Forecast

Advertisements
Track Severe Weather on mobile